Alberhill, CA

10:57 PM PDT on April 25, 2015 (GMT -0700)
The Jonesranch | | Change Station
CLOSE
Current Station
Personal Weather Station
Location: Rancho Capistrano, Ca
Elevation: 3100 ft
Nearby Weather Stations

Elev 3100 ft 33.61 °N, 117.36 °W | Updated 6 seconds ago

Overcast
Overcast
46.5 °F
Feels Like 46 °F
N
0.0
Wind Variable Wind from NW
Gusts 2.0 mph

Today
High -- | Low -- °F
--% Chance of Precip.
Yesterday
High -- | Low -- °F
Precip. -- in
6:07 AM 7:27 PM
First Quarter, 52% visible
Pressure 29.94 in
Visibility 10.0 miles
Clouds Mostly Cloudy 1700 ft
Windchill 46 °F
Dew Point 46 °F
Humidity 100%
Rainfall 0.36 in
Snow Depth Not available.
UV 0 out of 12
Pollen 6.90 out of 12
Air Quality Not available.
Flu Activity Sporadic
METAR KF70 260535Z AUTO 16004KT 10SM BKN017 11/10 A2994 RMK AO1

More Conditions Fewer Conditions

Pressure 29.94 in
Visibility 10.0 miles
Clouds Mostly Cloudy 1700 ft
Windchill 46 °F
Dew Point 46 °F
Humidity 100%
Rainfall 0.36 in
Snow Depth Not available.
UV 0 out of 12
Pollen 6.90 out of 12
Air Quality Not available.
Flu Activity Sporadic
METAR KF70 260535Z AUTO 16004KT 10SM BKN017 11/10 A2994 RMK AO1

More Conditions Fewer Conditions

The full scope of the disaster following a powerful 7.8-magnitude earthquake in Nepal may not come into view for days, but global charities are already sending emergency aid. Click to see how you can help.

10-Day Weather Forecast

Almanac

Astronomy

Apr. 25, 2015 Rise Set
Actual Time
Civil Twilight
Nautical Twilight
Astronomical Twilight
Moon
Length of Visible Light
Length of Day
Tomorrow will be .
, % of the Moon is Illuminated

Today's Extremes

State Highs State Lows

Community

WunderPhotos

Upload Photos

1,816,946 photos uploaded!

WunderBlogs® & News

Nearby

Air Quality

  Air Quality AQ Index Pollutant
Not available.

Snow Depth

Station Depth Elevation

Earthquake Activity

City Distance Mag. Time & Date
Minimum magnitude displayed is 2.5.

Coastal Water Temperatures

Place Temperature

Stations

Nearby Weather Stations

Station Location Temp. Windchill Dew Point Humidity Wind Precip. Elev Updated Type